createdAt,value
2022-12-11T00:00:59.011Z,95.71
2022-12-11T00:04:02.958Z,95.84
2022-12-11T00:07:05.572Z,95.59
2022-12-11T00:10:09.433Z,95.22
2022-12-11T00:13:12.020Z,95.49
2022-12-11T00:16:14.701Z,95.42
2022-12-11T00:19:18.673Z,95.52
2022-12-11T00:22:21.276Z,95.67
2022-12-11T00:25:23.837Z,95.36
2022-12-11T00:28:26.489Z,95.17
2022-12-11T00:31:29.108Z,95.40
2022-12-11T00:34:33.060Z,95.02
2022-12-11T00:37:35.732Z,95.56
2022-12-11T00:40:38.418Z,94.96
2022-12-11T00:43:41.030Z,95.05
2022-12-11T00:46:43.640Z,95.12
2022-12-11T00:49:49.937Z,94.82
2022-12-11T00:52:52.859Z,95.17
2022-12-11T00:55:55.482Z,94.66
2022-12-11T00:58:58.101Z,94.81
2022-12-11T01:02:00.722Z,94.36
2022-12-11T01:05:05.061Z,94.62
2022-12-11T01:08:07.788Z,94.86
2022-12-11T01:11:11.814Z,94.64
2022-12-11T01:14:14.433Z,94.96
2022-12-11T01:17:16.991Z,94.27
2022-12-11T01:20:21.032Z,94.49
2022-12-11T01:23:23.629Z,94.54
2022-12-11T01:26:26.261Z,94.33
2022-12-11T01:29:28.833Z,94.11
2022-12-11T01:32:31.521Z,94.15
2022-12-11T01:35:35.556Z,94.43
2022-12-11T01:38:38.144Z,94.27
2022-12-11T01:41:40.774Z,94.16
2022-12-11T01:45:27.178Z,94.91
2022-12-11T01:48:31.424Z,93.87
2022-12-11T01:51:37.066Z,94.22
2022-12-11T01:54:39.778Z,94.66
2022-12-11T01:57:43.305Z,93.98
2022-12-11T02:00:45.914Z,93.90
2022-12-11T02:03:48.485Z,93.92
2022-12-11T02:06:52.838Z,94.10
2022-12-11T02:09:55.455Z,94.56
2022-12-11T02:13:00.027Z,94.26
2022-12-11T02:16:06.926Z,94.33
2022-12-11T02:19:15.989Z,93.65
2022-12-11T02:22:23.747Z,93.67
2022-12-11T02:25:28.819Z,93.55
2022-12-11T02:28:33.258Z,93.39
2022-12-11T02:31:37.534Z,93.87
2022-12-11T02:34:42.082Z,93.36
2022-12-11T02:37:45.573Z,93.87
2022-12-11T02:40:48.132Z,93.51
2022-12-11T02:43:52.339Z,93.60
2022-12-11T02:46:54.929Z,93.42
2022-12-11T02:49:57.542Z,93.59
2022-12-11T02:53:00.123Z,93.22
2022-12-11T02:56:05.450Z,93.92
2022-12-11T02:59:11.326Z,94.35
2022-12-11T03:02:14.377Z,93.58
2022-12-11T03:05:16.981Z,94.29
2022-12-11T03:08:19.574Z,94.25
2022-12-11T03:11:22.145Z,93.87
2022-12-11T03:14:26.145Z,93.69
2022-12-11T03:17:31.286Z,93.96
2022-12-11T03:20:37.940Z,94.26
2022-12-11T03:23:42.452Z,94.43
2022-12-11T03:26:46.085Z,94.05
2022-12-11T03:29:56.865Z,94.24
2022-12-11T03:33:00.689Z,93.56
2022-12-11T03:36:06.334Z,94.10
2022-12-11T03:39:10.276Z,94.03
2022-12-11T03:42:13.823Z,93.88
2022-12-11T03:45:17.858Z,93.68
2022-12-11T03:48:20.427Z,93.93
2022-12-11T03:51:24.071Z,93.63
2022-12-11T03:54:26.644Z,93.68
2022-12-11T03:57:31.108Z,93.92
2022-12-11T04:00:35.094Z,93.41
2022-12-11T04:03:37.786Z,93.42
2022-12-11T04:06:40.378Z,93.04
2022-12-11T04:09:42.912Z,93.02
2022-12-11T04:12:45.525Z,93.47
2022-12-11T04:15:49.604Z,93.25
2022-12-11T04:19:10.020Z,93.38
2022-12-11T04:22:29.628Z,93.21
2022-12-11T04:25:32.257Z,93.32
2022-12-11T04:28:34.874Z,92.88
2022-12-11T04:31:38.795Z,93.13
2022-12-11T04:34:41.685Z,92.82
2022-12-11T04:37:44.260Z,93.17
2022-12-11T04:40:46.835Z,92.67
2022-12-11T04:43:49.393Z,92.38
2022-12-11T04:46:53.389Z,92.89
2022-12-11T04:49:56.037Z,92.24
2022-12-11T04:52:58.622Z,92.83
2022-12-11T04:56:01.208Z,92.36
2022-12-11T04:59:03.765Z,92.18
2022-12-11T05:02:07.715Z,92.46
2022-12-11T05:05:11.273Z,92.31
2022-12-11T05:08:14.014Z,92.20
2022-12-11T05:11:17.450Z,92.39
2022-12-11T05:14:20.173Z,91.79
2022-12-11T05:17:24.093Z,91.87
2022-12-11T05:20:26.661Z,91.75
2022-12-11T05:23:29.595Z,91.24
2022-12-11T05:26:32.147Z,91.82
2022-12-11T05:29:34.773Z,91.51
2022-12-11T05:32:38.713Z,91.68
2022-12-11T05:35:47.129Z,91.08
2022-12-11T05:38:49.779Z,90.97
2022-12-11T05:41:52.391Z,91.09
2022-12-11T05:44:54.977Z,90.66
2022-12-11T05:47:58.987Z,90.82
2022-12-11T05:51:01.933Z,90.98
2022-12-11T05:54:05.162Z,90.78
2022-12-11T05:57:07.773Z,90.53
2022-12-11T06:00:12.488Z,90.54
2022-12-11T06:03:16.435Z,90.20
2022-12-11T06:06:19.034Z,89.84
2022-12-11T06:09:21.613Z,89.49
2022-12-11T06:12:24.341Z,89.67
2022-12-11T06:15:26.973Z,89.58
2022-12-11T06:18:31.001Z,89.34
2022-12-11T06:21:33.986Z,89.58
2022-12-11T06:24:36.653Z,89.41
2022-12-11T06:27:39.271Z,89.60
2022-12-11T06:30:41.853Z,89.75
2022-12-11T06:33:45.812Z,89.45
2022-12-11T06:36:48.409Z,89.97
2022-12-11T06:39:51.018Z,89.95
2022-12-11T06:42:54.504Z,90.35
2022-12-11T06:46:03.426Z,90.16
2022-12-11T06:49:07.885Z,89.92
2022-12-11T06:52:15.009Z,90.05
2022-12-11T06:55:20.716Z,90.02
2022-12-11T06:58:23.317Z,90.37
2022-12-11T07:01:26.683Z,90.48
2022-12-11T07:04:30.679Z,90.71
2022-12-11T07:07:33.290Z,90.48
2022-12-11T07:10:35.977Z,90.24
2022-12-11T07:13:38.557Z,90.56
2022-12-11T07:16:41.301Z,90.64
2022-12-11T07:19:45.538Z,90.61
2022-12-11T07:22:48.109Z,90.56
2022-12-11T07:25:50.696Z,90.59
2022-12-11T07:28:53.297Z,90.52
2022-12-11T07:31:55.951Z,90.40
2022-12-11T07:35:00.006Z,90.56
2022-12-11T07:38:02.605Z,91.02
2022-12-11T07:41:06.253Z,90.98
2022-12-11T07:44:08.842Z,91.21
2022-12-11T07:47:11.390Z,91.08
2022-12-11T07:50:15.381Z,91.28
2022-12-11T07:53:17.992Z,91.73
2022-12-11T07:56:20.575Z,91.30
2022-12-11T07:59:23.117Z,91.53
2022-12-11T08:02:25.693Z,91.46
2022-12-11T08:05:29.668Z,91.22
2022-12-11T08:08:32.272Z,91.27
2022-12-11T08:11:34.868Z,91.25
2022-12-11T08:14:37.665Z,91.17
2022-12-11T08:17:40.656Z,91.24
2022-12-11T08:20:44.574Z,91.21
2022-12-11T08:23:47.235Z,91.45
2022-12-11T08:26:49.807Z,91.40
2022-12-11T08:29:52.385Z,90.71
2022-12-11T08:32:54.945Z,91.62
2022-12-11T08:35:58.901Z,91.23
2022-12-11T08:39:01.908Z,91.05
2022-12-11T08:42:05.186Z,91.34
2022-12-11T08:45:09.588Z,90.96
2022-12-11T08:48:12.507Z,90.44
2022-12-11T08:51:17.194Z,90.97
2022-12-11T08:54:19.774Z,90.88
2022-12-11T08:57:22.398Z,90.89
2022-12-11T09:00:24.978Z,90.34
2022-12-11T09:03:27.541Z,89.89
2022-12-11T09:06:31.599Z,90.10
2022-12-11T09:09:34.203Z,90.41
2022-12-11T09:12:37.021Z,90.14
2022-12-11T09:15:41.459Z,89.94
2022-12-11T09:18:44.097Z,89.86
2022-12-11T09:21:48.061Z,89.38
2022-12-11T09:24:50.641Z,90.22
2022-12-11T09:27:53.228Z,90.25
2022-12-11T09:30:55.880Z,89.65
2022-12-11T09:33:59.254Z,89.18
2022-12-11T09:37:03.218Z,89.78
2022-12-11T09:40:07.887Z,89.49
2022-12-11T09:43:16.413Z,89.85
2022-12-11T09:46:21.607Z,89.89
2022-12-11T09:49:29.867Z,89.85
2022-12-11T09:52:36.152Z,89.46
2022-12-11T09:55:43.177Z,89.65
2022-12-11T09:58:54.890Z,90.03
2022-12-11T10:02:01.542Z,89.99
2022-12-11T10:05:09.066Z,89.56
2022-12-11T10:08:15.555Z,90.07
2022-12-11T10:11:37.253Z,89.85
2022-12-11T10:14:46.621Z,90.28
2022-12-11T10:17:49.193Z,90.07
2022-12-11T10:20:52.688Z,90.06
2022-12-11T10:23:58.948Z,89.49
2022-12-11T10:27:02.507Z,90.06
2022-12-11T10:30:21.437Z,89.53
2022-12-11T10:33:25.574Z,90.17
2022-12-11T10:36:29.593Z,89.54
2022-12-11T10:39:33.536Z,90.25
2022-12-11T10:42:38.938Z,90.40
2022-12-11T10:45:52.457Z,90.86
2022-12-11T10:48:55.828Z,90.40
2022-12-11T10:52:01.275Z,90.14
2022-12-11T10:55:06.952Z,90.79
2022-12-11T10:58:15.082Z,89.60
2022-12-11T11:01:19.950Z,90.62
2022-12-11T11:04:26.038Z,89.53
2022-12-11T11:07:29.339Z,89.66
2022-12-11T11:10:33.272Z,89.40
2022-12-11T11:13:36.287Z,89.76
2022-12-11T11:16:39.228Z,89.34
2022-12-11T11:19:41.842Z,89.24
2022-12-11T11:22:46.343Z,89.22
2022-12-11T11:25:54.267Z,89.14
2022-12-11T11:28:57.065Z,88.44
2022-12-11T11:32:00.654Z,88.30
2022-12-11T11:35:16.880Z,88.74
2022-12-11T11:38:20.736Z,88.69
2022-12-11T11:41:27.157Z,87.76
2022-12-11T11:44:32.518Z,88.06
2022-12-11T11:47:37.479Z,87.61
2022-12-11T11:50:40.018Z,87.51
2022-12-11T11:53:42.665Z,87.21
2022-12-11T11:56:46.598Z,86.96
2022-12-11T11:59:50.980Z,87.39
2022-12-11T12:02:55.249Z,87.17
2022-12-11T12:05:59.429Z,86.81
2022-12-11T12:09:09.098Z,86.90
2022-12-11T12:12:26.367Z,86.97
2022-12-11T12:15:36.444Z,86.54
2022-12-11T12:18:41.775Z,86.44
2022-12-11T12:21:44.878Z,86.33
2022-12-11T12:24:50.777Z,86.03
2022-12-11T12:27:59.421Z,85.98
2022-12-11T12:31:09.508Z,86.02
2022-12-11T12:34:16.546Z,85.32
2022-12-11T12:37:23.904Z,85.57
2022-12-11T12:40:30.870Z,85.01
2022-12-11T12:43:44.379Z,84.95
2022-12-11T12:46:52.309Z,85.42
2022-12-11T12:49:54.901Z,85.03
2022-12-11T12:52:57.465Z,84.68
2022-12-11T12:56:00.077Z,84.51
2022-12-11T12:59:04.038Z,84.30
2022-12-11T13:02:08.840Z,83.87
2022-12-11T13:05:21.337Z,83.54
2022-12-11T13:08:25.748Z,83.41
2022-12-11T13:11:32.669Z,83.50
2022-12-11T13:14:36.630Z,83.64
2022-12-11T13:17:39.644Z,84.13
2022-12-11T13:20:48.062Z,83.25
2022-12-11T13:23:50.609Z,83.48
2022-12-11T13:26:53.359Z,83.24
2022-12-11T13:30:07.424Z,83.15
2022-12-11T13:33:16.070Z,83.29
2022-12-11T13:36:35.800Z,82.88
2022-12-11T13:39:38.913Z,83.60
2022-12-11T13:42:44.958Z,83.42
2022-12-11T13:45:50.326Z,83.53
2022-12-11T13:48:55.164Z,82.86
2022-12-11T13:51:58.659Z,82.68
2022-12-11T13:55:01.283Z,82.83
2022-12-11T13:58:03.828Z,83.54
2022-12-11T14:01:11.025Z,82.94
2022-12-11T14:04:16.687Z,81.97
2022-12-11T14:07:23.817Z,82.36
2022-12-11T14:10:27.419Z,82.40
2022-12-11T14:13:32.677Z,82.69
2022-12-11T14:16:37.178Z,81.41
2022-12-11T14:19:39.830Z,82.21
2022-12-11T14:22:42.401Z,82.02
2022-12-11T14:25:53.311Z,81.46
2022-12-11T14:28:56.095Z,81.49
2022-12-11T14:32:01.762Z,81.94
2022-12-11T14:35:06.460Z,81.55
2022-12-11T14:38:12.371Z,81.95
2022-12-11T14:41:18.064Z,81.98
2022-12-11T14:44:21.044Z,81.55
2022-12-11T14:47:25.949Z,81.72
2022-12-11T14:50:31.076Z,82.06
2022-12-11T14:53:35.192Z,82.12
2022-12-11T14:56:37.781Z,82.15
2022-12-11T14:59:44.916Z,81.89
2022-12-11T15:02:57.877Z,82.23
2022-12-11T15:06:00.551Z,82.25
2022-12-11T15:09:26.066Z,82.15
2022-12-11T15:12:28.682Z,81.82
2022-12-11T15:15:31.753Z,82.40
2022-12-11T15:18:36.793Z,81.90
2022-12-11T15:21:39.486Z,82.39
2022-12-11T15:24:42.746Z,81.88
2022-12-11T15:27:45.546Z,82.01
2022-12-11T15:30:56.427Z,81.72
2022-12-11T15:34:00.355Z,81.33
2022-12-11T15:37:03.007Z,81.67
2022-12-11T15:40:06.504Z,81.57
2022-12-11T15:43:09.629Z,81.81
2022-12-11T15:46:12.268Z,81.32
2022-12-11T15:49:16.252Z,81.98
2022-12-11T15:52:18.841Z,81.48
2022-12-11T15:55:21.780Z,81.35
2022-12-11T15:58:24.482Z,81.31
2022-12-11T16:01:27.058Z,81.08
2022-12-11T16:04:31.057Z,80.94
2022-12-11T16:07:34.101Z,81.37
2022-12-11T16:10:37.527Z,81.71
2022-12-11T16:13:40.166Z,81.29
2022-12-11T16:16:42.772Z,81.27
2022-12-11T16:19:46.764Z,81.82
2022-12-11T16:22:49.382Z,81.54
2022-12-11T16:25:51.993Z,81.42
2022-12-11T16:28:54.560Z,81.03
2022-12-11T16:31:57.168Z,80.97
2022-12-11T16:35:01.484Z,80.90
2022-12-11T16:38:04.110Z,81.06
2022-12-11T16:41:07.120Z,81.40
2022-12-11T16:44:10.444Z,80.93
2022-12-11T16:47:13.048Z,81.07
2022-12-11T16:50:17.389Z,81.01
2022-12-11T16:53:19.948Z,80.58
2022-12-11T16:56:22.604Z,80.97
2022-12-11T16:59:25.168Z,80.69
2022-12-11T17:02:27.788Z,80.89
2022-12-11T17:05:31.789Z,80.78
2022-12-11T17:08:34.427Z,80.65
2022-12-11T17:11:37.032Z,80.88
2022-12-11T17:14:39.658Z,80.62
2022-12-11T17:17:43.097Z,81.13
2022-12-11T17:20:47.012Z,80.17
2022-12-11T17:23:49.580Z,80.41
2022-12-11T17:26:52.199Z,80.48
2022-12-11T17:29:54.769Z,80.55
2022-12-11T17:32:57.369Z,80.70
2022-12-11T17:36:01.811Z,80.57
2022-12-11T17:39:04.507Z,80.13
2022-12-11T17:42:07.272Z,80.05
2022-12-11T17:45:10.863Z,79.99
2022-12-11T17:48:13.889Z,80.38
2022-12-11T17:51:21.791Z,79.91
2022-12-11T17:54:24.525Z,80.36
2022-12-11T17:57:27.119Z,79.91
2022-12-11T18:00:33.229Z,79.95
2022-12-11T18:03:36.239Z,79.63
2022-12-11T18:06:40.282Z,79.63
2022-12-11T18:09:42.877Z,79.02
2022-12-11T18:12:45.478Z,79.81
2022-12-11T18:15:48.617Z,79.64
2022-12-11T18:18:52.037Z,79.76
2022-12-11T18:21:56.065Z,79.98
2022-12-11T18:24:59.156Z,79.40
2022-12-11T18:28:01.760Z,79.60
2022-12-11T18:31:04.588Z,79.39
2022-12-11T18:34:07.212Z,79.38
2022-12-11T18:37:11.114Z,79.15
2022-12-11T18:40:13.682Z,79.53
2022-12-11T18:43:16.242Z,79.56
2022-12-11T18:46:19.899Z,79.79
2022-12-11T18:49:22.665Z,78.96
2022-12-11T18:52:26.593Z,79.53
2022-12-11T18:55:29.194Z,79.04
2022-12-11T18:58:31.812Z,79.47
2022-12-11T19:01:34.588Z,78.97
2022-12-11T19:04:37.592Z,79.58
2022-12-11T19:07:41.533Z,79.33
2022-12-11T19:10:47.004Z,79.66
2022-12-11T19:13:49.707Z,79.64
2022-12-11T19:16:52.318Z,79.64
2022-12-11T19:19:54.865Z,79.75
2022-12-11T19:22:58.821Z,79.92
2022-12-11T19:26:01.565Z,79.74
2022-12-11T19:29:04.386Z,80.11
2022-12-11T19:32:07.036Z,79.84
2022-12-11T19:35:10.196Z,80.12
2022-12-11T19:38:14.506Z,79.55
2022-12-11T19:41:18.363Z,79.46
2022-12-11T19:44:20.982Z,79.46
2022-12-11T19:47:23.586Z,80.00
2022-12-11T19:50:26.200Z,79.44
2022-12-11T19:53:30.288Z,79.65
2022-12-11T19:56:33.112Z,79.65
2022-12-11T19:59:35.721Z,79.78
2022-12-11T20:02:38.341Z,79.65
2022-12-11T20:05:40.976Z,79.65
2022-12-11T20:08:46.003Z,79.72
2022-12-11T20:11:48.932Z,78.94
2022-12-11T20:14:51.561Z,79.31
2022-12-11T20:17:54.239Z,79.58
2022-12-11T20:20:56.869Z,79.26
2022-12-11T20:24:00.812Z,79.65
2022-12-11T20:27:03.380Z,79.79
2022-12-11T20:30:07.322Z,79.45
2022-12-11T20:33:09.962Z,79.67
2022-12-11T20:36:13.608Z,79.57
2022-12-11T20:39:17.548Z,80.13
2022-12-11T20:42:20.130Z,79.63
2022-12-11T20:45:22.778Z,80.12
2022-12-11T20:48:25.932Z,80.46
2022-12-11T20:51:29.027Z,80.45
2022-12-11T20:54:32.953Z,80.41
2022-12-11T20:57:37.346Z,80.58
2022-12-11T21:00:43.765Z,80.75
2022-12-11T21:03:46.629Z,81.13
2022-12-11T21:06:55.050Z,80.92
2022-12-11T21:09:58.966Z,81.04
2022-12-11T21:13:01.568Z,80.99
2022-12-11T21:16:06.132Z,81.31
2022-12-11T21:19:13.683Z,81.56
2022-12-11T21:22:19.074Z,80.66
2022-12-11T21:25:23.011Z,81.20
2022-12-11T21:28:29.292Z,81.61
2022-12-11T21:31:34.671Z,81.21
2022-12-11T21:34:37.719Z,80.96
2022-12-11T21:37:41.797Z,81.38
2022-12-11T21:40:45.736Z,81.23
2022-12-11T21:47:11.536Z,81.01
2022-12-11T21:50:14.129Z,81.38
2022-12-11T21:53:16.718Z,81.78
2022-12-11T21:56:21.505Z,81.95
2022-12-11T21:59:24.145Z,81.87
2022-12-11T22:02:26.776Z,82.10
2022-12-11T22:05:29.372Z,82.17
2022-12-11T22:08:32.016Z,82.18
2022-12-11T22:11:36.217Z,82.32
2022-12-11T22:14:38.755Z,82.60
2022-12-11T22:17:41.312Z,82.83
2022-12-11T22:20:44.489Z,83.05
2022-12-11T22:23:47.080Z,82.75
2022-12-11T22:26:51.276Z,83.10
2022-12-11T22:29:53.957Z,83.15
2022-12-11T22:32:56.520Z,83.15
2022-12-11T22:35:59.682Z,83.01
2022-12-11T22:39:02.807Z,83.31
2022-12-11T22:42:06.914Z,83.43
2022-12-11T22:45:11.026Z,83.54
2022-12-11T22:48:13.864Z,83.61
2022-12-11T22:51:16.419Z,83.65
2022-12-11T22:54:18.978Z,83.98
2022-12-11T22:57:22.921Z,83.49
2022-12-11T23:00:25.774Z,83.50
2022-12-11T23:03:28.468Z,84.18
2022-12-11T23:06:31.111Z,84.29
2022-12-11T23:09:33.714Z,84.25
2022-12-11T23:12:37.710Z,83.76
2022-12-11T23:15:40.305Z,83.83
2022-12-11T23:18:43.017Z,84.42
2022-12-11T23:21:45.560Z,84.49
2022-12-11T23:24:48.138Z,83.86
2022-12-11T23:27:52.105Z,84.42
2022-12-11T23:30:55.028Z,84.09
2022-12-11T23:33:58.017Z,84.44
2022-12-11T23:37:00.655Z,83.74
2022-12-11T23:40:03.245Z,83.76
2022-12-11T23:43:07.223Z,83.03
2022-12-11T23:46:12.817Z,83.68
2022-12-11T23:49:15.479Z,83.38
2022-12-11T23:52:18.098Z,82.92
2022-12-11T23:55:20.760Z,83.51
2022-12-11T23:58:24.694Z,83.46
